Time;durP1;ratioP1;P1;durP2;ratioP2;P2;SDS_P1;SDS_P2;PMS_P1;PMS_P2;Temp;Humidity;BMP_temperature;BMP_pressure;BME280_temperature;BME280_humidity;BME280_pressure;Samples;Min_cycle;Max_cycle;Signal;HPM_P1;HPM_P2
2024/01/26 06:57:28;;;;;;;20.45;5.55;;;4.60;99.90;;;;;;5181359;23;20580;-63
2024/01/26 06:59:54;;;;;;;24.65;5.07;;;4.70;99.90;;;;;;4979888;28;20117;-60
2024/01/26 07:02:20;;;;;;;16.08;4.70;;;4.80;99.90;;;;;;4978842;28;20117;-60
2024/01/26 07:04:47;;;;;;;15.82;5.18;;;4.80;99.90;;;;;;4992793;28;20129;-61
2024/01/26 07:07:12;;;;;;;36.95;6.72;;;4.90;99.90;;;;;;4972219;28;20030;-64
2024/01/26 07:09:38;;;;;;;13.20;4.78;;;5.00;99.90;;;;;;4974819;28;20035;-62
2024/01/26 07:12:05;;;;;;;13.52;4.75;;;5.10;99.90;;;;;;4973114;28;20495;-61
2024/01/26 07:14:30;;;;;;;15.32;4.30;;;5.20;99.90;;;;;;4945939;28;20034;-60
2024/01/26 07:16:56;;;;;;;17.65;5.05;;;5.20;99.90;;;;;;4973066;28;20544;-61
2024/01/26 07:19:22;;;;;;;13.23;3.88;;;5.30;99.90;;;;;;4977144;28;20596;-61
2024/01/26 07:21:48;;;;;;;19.65;5.18;;;5.30;99.90;;;;;;4971680;28;20034;-61
2024/01/26 07:24:14;;;;;;;14.32;4.80;;;5.30;99.90;;;;;;4972492;28;20027;-61
2024/01/26 07:26:41;;;;;;;17.27;5.25;;;5.40;99.90;;;;;;4975400;28;20030;-61
2024/01/26 07:29:07;;;;;;;14.82;4.28;;;5.40;99.90;;;;;;4973343;28;20030;-61
2024/01/26 07:31:33;;;;;;;15.30;4.25;;;5.50;99.90;;;;;;4974818;28;20054;-60
2024/01/26 07:33:58;;;;;;;16.25;4.88;;;5.50;99.90;;;;;;4968850;28;20029;-61
2024/01/26 07:36:24;;;;;;;16.33;5.72;;;5.60;99.90;;;;;;4979366;28;20105;-61
2024/01/26 07:38:50;;;;;;;19.40;6.03;;;5.70;99.90;;;;;;4974394;28;20030;-60
2024/01/26 07:41:16;;;;;;;16.88;5.28;;;5.70;99.90;;;;;;4973681;28;20474;-62
2024/01/26 07:43:41;;;;;;;15.95;5.85;;;5.80;99.90;;;;;;4974817;28;20097;-61
2024/01/26 07:46:07;;;;;;;22.80;5.22;;;5.80;99.90;;;;;;4977024;28;20035;-61
2024/01/26 07:48:33;;;;;;;19.67;4.63;;;5.80;99.90;;;;;;4977862;28;20112;-61
2024/01/26 07:50:59;;;;;;;18.15;5.32;;;5.90;99.90;;;;;;4976024;28;20038;-61
2024/01/26 07:53:25;;;;;;;12.02;4.72;;;5.90;99.90;;;;;;4969377;28;20105;-62
2024/01/26 07:55:50;;;;;;;14.55;4.38;;;6.00;99.90;;;;;;4971772;28;20038;-62
2024/01/26 07:58:16;;;;;;;15.23;4.43;;;6.10;99.90;;;;;;4971032;28;20042;-62
2024/01/26 08:00:44;;;;;;;17.60;5.40;;;6.10;99.90;;;;;;4974082;28;20057;-66
2024/01/26 08:03:11;;;;;;;14.65;4.38;;;6.20;99.90;;;;;;4974762;28;20619;-65
2024/01/26 08:05:36;;;;;;;14.02;4.97;;;6.30;99.90;;;;;;4972401;28;20030;-64
2024/01/26 08:08:03;;;;;;;15.75;5.15;;;6.30;99.90;;;;;;4970453;28;20042;-61
2024/01/26 08:10:29;;;;;;;13.85;4.57;;;6.30;99.90;;;;;;4979510;28;20436;-65
2024/01/26 08:12:55;;;;;;;17.67;4.85;;;6.30;99.90;;;;;;4977643;28;20109;-62
2024/01/26 08:15:21;;;;;;;16.80;5.05;;;6.40;99.90;;;;;;4970018;28;20085;-62
2024/01/26 08:17:47;;;;;;;20.95;4.43;;;6.30;99.90;;;;;;4967285;28;20038;-62
2024/01/26 08:20:13;;;;;;;15.15;4.28;;;6.30;99.90;;;;;;4974833;28;20038;-66
2024/01/26 08:22:39;;;;;;;27.02;6.28;;;6.30;99.90;;;;;;4968874;28;20031;-65
2024/01/26 08:25:06;;;;;;;13.68;4.40;;;6.20;99.90;;;;;;4983390;28;20117;-62
2024/01/26 08:27:32;;;;;;;20.33;5.00;;;6.20;99.90;;;;;;4971990;28;20608;-61
2024/01/26 08:29:58;;;;;;;17.15;5.25;;;6.20;99.90;;;;;;4978879;28;20042;-61
2024/01/26 08:32:23;;;;;;;15.20;4.80;;;6.20;99.90;;;;;;4976625;28;20038;-61
2024/01/26 08:34:49;;;;;;;17.17;4.45;;;6.30;99.90;;;;;;4976335;28;20091;-64
2024/01/26 08:37:15;;;;;;;11.10;3.88;;;6.40;99.90;;;;;;4976233;28;20777;-66
2024/01/26 08:39:44;;;;;;;16.23;4.38;;;6.50;99.90;;;;;;4970979;28;20035;-66
2024/01/26 08:42:10;;;;;;;18.98;6.38;;;6.60;99.90;;;;;;4979514;28;20057;-66
2024/01/26 08:44:37;;;;;;;21.00;5.43;;;6.70;99.90;;;;;;4973302;28;20034;-63
2024/01/26 08:47:03;;;;;;;18.13;4.22;;;6.70;99.90;;;;;;4970625;28;20030;-61
2024/01/26 08:49:29;;;;;;;18.20;5.13;;;6.70;99.90;;;;;;4994082;28;20035;-62
2024/01/26 08:51:57;;;;;;;21.55;5.57;;;6.60;99.90;;;;;;4971873;28;20115;-62
2024/01/26 08:54:24;;;;;;;17.05;5.03;;;6.60;99.90;;;;;;4976285;28;20429;-62
2024/01/26 08:56:50;;;;;;;18.38;5.15;;;6.60;99.90;;;;;;4975736;28;20046;-67
2024/01/26 08:59:16;;;;;;;25.35;5.85;;;6.80;99.90;;;;;;4975994;28;20031;-62
2024/01/26 09:01:42;;;;;;;18.92;5.00;;;6.80;99.90;;;;;;4972029;28;20390;-62
2024/01/26 09:04:08;;;;;;;18.92;4.82;;;6.80;99.90;;;;;;4978047;28;20106;-62
2024/01/26 09:06:35;;;;;;;17.33;4.75;;;6.80;99.90;;;;;;4984258;28;20031;-62
2024/01/26 09:09:02;;;;;;;20.85;5.50;;;6.80;99.90;;;;;;4976441;28;20844;-62
2024/01/26 09:11:28;;;;;;;21.83;5.78;;;6.90;99.90;;;;;;4982553;28;20121;-62
2024/01/26 09:13:54;;;;;;;14.20;5.30;;;7.00;99.90;;;;;;4976229;28;20716;-62
2024/01/26 09:16:20;;;;;;;22.70;5.43;;;7.10;99.90;;;;;;4981186;28;20748;-62
2024/01/26 09:18:46;;;;;;;14.95;5.45;;;7.20;99.90;;;;;;4976822;28;20214;-62
2024/01/26 09:21:12;;;;;;;19.08;4.60;;;7.40;99.90;;;;;;4972066;28;20035;-62
2024/01/26 09:23:39;;;;;;;18.42;5.70;;;7.40;99.90;;;;;;4978575;28;20027;-62
2024/01/26 09:26:05;;;;;;;20.80;5.07;;;7.40;99.90;;;;;;4979418;28;20098;-62
2024/01/26 09:28:31;;;;;;;23.88;5.68;;;7.40;99.90;;;;;;4978850;28;20057;-68
2024/01/26 09:30:58;;;;;;;23.17;4.63;;;7.40;99.90;;;;;;4974117;28;20035;-67
2024/01/26 09:33:23;;;;;;;14.25;4.68;;;7.50;99.90;;;;;;4981173;28;20034;-66
2024/01/26 09:35:49;;;;;;;17.95;4.60;;;7.50;99.90;;;;;;4970877;28;20046;-65
2024/01/26 09:38:15;;;;;;;16.08;4.72;;;7.50;99.90;;;;;;4969799;28;20085;-63
2024/01/26 09:40:42;;;;;;;18.83;5.30;;;7.70;99.90;;;;;;4977033;28;20041;-63
2024/01/26 09:43:09;;;;;;;17.33;5.35;;;7.90;99.90;;;;;;4977441;28;20038;-63
2024/01/26 09:45:35;;;;;;;12.13;5.40;;;7.80;99.90;;;;;;4978984;28;20030;-63
2024/01/26 09:48:05;;;;;;;19.85;5.00;;;7.80;99.90;;;;;;4974129;28;20030;-62
2024/01/26 09:50:32;;;;;;;15.52;4.47;;;7.80;99.90;;;;;;4988755;28;20049;-63
2024/01/26 09:52:59;;;;;;;20.30;5.32;;;7.80;99.90;;;;;;4983631;28;20041;-62
2024/01/26 09:55:25;;;;;;;18.77;4.60;;;7.80;99.90;;;;;;4975538;28;20489;-62
2024/01/26 09:57:53;;;;;;;17.55;5.43;;;7.80;99.90;;;;;;4975183;28;20046;-63
2024/01/26 10:00:19;;;;;;;24.55;4.80;;;7.90;99.90;;;;;;4975889;28;20058;-62
2024/01/26 10:02:45;;;;;;;17.40;4.50;;;7.90;99.90;;;;;;4977843;28;20074;-62
2024/01/26 10:05:14;;;;;;;14.60;4.95;;;8.00;99.90;;;;;;4987765;28;20039;-66
2024/01/26 10:07:40;;;;;;;16.70;5.03;;;8.10;99.90;;;;;;4972564;28;20031;-67
2024/01/26 10:10:07;;;;;;;13.88;4.95;;;8.20;99.90;;;;;;4973944;28;20704;-65
2024/01/26 10:12:35;;;;;;;21.70;5.22;;;8.30;99.90;;;;;;4971881;28;20487;-65
2024/01/26 10:15:07;;;;;;;11.32;4.88;;;8.40;99.90;;;;;;4967845;28;20065;-66
2024/01/26 10:17:33;;;;;;;12.90;4.68;;;8.40;99.90;;;;;;4969591;28;20046;-66
2024/01/26 10:20:10;;;;;;;16.67;5.15;;;8.30;99.90;;;;;;4972927;28;20035;-66
2024/01/26 10:22:39;;;;;;;17.73;4.85;;;8.40;99.90;;;;;;4974421;28;20085;-67
2024/01/26 10:25:05;;;;;;;15.45;4.75;;;8.20;99.90;;;;;;4972966;28;20034;-67
2024/01/26 10:27:32;;;;;;;17.83;4.90;;;8.20;99.90;;;;;;4970631;28;20038;-67
2024/01/26 10:29:58;;;;;;;9.45;4.40;;;8.30;99.90;;;;;;4985237;28;20558;-66
2024/01/26 10:32:33;;;;;;;13.63;4.50;;;8.50;99.90;;;;;;4973293;28;20046;-67
2024/01/26 10:35:03;;;;;;;22.35;5.20;;;8.70;99.90;;;;;;4983832;28;20040;-67
2024/01/26 10:37:34;;;;;;;15.70;4.80;;;8.70;99.90;;;;;;4974552;28;20486;-65
2024/01/26 10:40:02;;;;;;;10.57;4.43;;;8.80;99.90;;;;;;4974316;28;20037;-66
2024/01/26 10:42:32;;;;;;;11.88;4.10;;;8.70;99.90;;;;;;4973912;28;20050;-66
2024/01/26 10:45:02;;;;;;;13.05;4.25;;;8.80;99.90;;;;;;4973589;28;20645;-66
2024/01/26 10:47:28;;;;;;;10.95;4.25;;;8.90;99.90;;;;;;4975666;28;20035;-66
2024/01/26 10:49:57;;;;;;;12.07;3.95;;;8.90;99.90;;;;;;4974623;28;20030;-62
2024/01/26 10:52:23;;;;;;;10.20;4.18;;;9.00;99.90;;;;;;4974706;28;20100;-62
2024/01/26 10:54:50;;;;;;;11.00;3.67;;;9.20;99.90;;;;;;4980539;28;20089;-62
2024/01/26 10:57:19;;;;;;;12.65;3.58;;;9.30;99.90;;;;;;4972091;28;20046;-64
2024/01/26 10:59:46;;;;;;;9.52;4.07;;;9.30;99.90;;;;;;4974870;28;20516;-62
2024/01/26 11:02:27;;;;;;;9.82;3.33;;;9.30;99.90;;;;;;4977617;28;20857;-62
2024/01/26 11:04:53;;;;;;;17.55;3.58;;;9.40;99.90;;;;;;4975442;28;20441;-62
2024/01/26 11:07:20;;;;;;;9.80;3.85;;;9.40;99.90;;;;;;4981791;28;20027;-62
2024/01/26 11:09:46;;;;;;;11.65;4.03;;;9.40;99.90;;;;;;4974805;28;20069;-62
2024/01/26 11:12:25;;;;;;;8.48;3.20;;;9.30;99.90;;;;;;4991664;28;20034;-66
2024/01/26 11:15:06;;;;;;;11.82;3.63;;;9.40;99.90;;;;;;4967607;28;20065;-66
2024/01/26 11:17:58;;;;;;;11.82;3.78;;;9.30;99.90;;;;;;4983807;28;20049;-66
2024/01/26 11:20:25;;;;;;;10.35;3.42;;;9.20;99.90;;;;;;4967635;28;20082;-66
2024/01/26 11:23:18;;;;;;;6.32;3.15;;;9.30;99.90;;;;;;4973704;28;20062;-66
2024/01/26 11:25:46;;;;;;;7.22;3.60;;;9.30;99.90;;;;;;4980658;28;20034;-66
2024/01/26 11:28:17;;;;;;;8.13;3.65;;;9.20;99.90;;;;;;4975185;28;20510;-66
2024/01/26 11:30:52;;;;;;;5.90;3.53;;;9.00;99.90;;;;;;4976757;28;20113;-66
2024/01/26 11:33:21;;;;;;;7.70;3.08;;;8.90;99.90;;;;;;4975743;28;20069;-62
2024/01/26 11:35:48;;;;;;;11.75;4.43;;;8.90;99.90;;;;;;4974696;28;20035;-62
2024/01/26 11:38:14;;;;;;;7.07;3.97;;;8.90;99.90;;;;;;4977972;28;20165;-62
2024/01/26 11:40:40;;;;;;;7.88;3.05;;;9.00;99.90;;;;;;4974059;28;20052;-62
2024/01/26 11:43:09;;;;;;;9.65;3.80;;;8.90;99.90;;;;;;4970077;28;20050;-62
2024/01/26 11:45:46;;;;;;;7.47;2.90;;;9.10;99.90;;;;;;4977477;28;20035;-66
2024/01/26 11:48:14;;;;;;;6.07;3.55;;;9.20;99.90;;;;;;4974346;28;20633;-65
2024/01/26 11:50:42;;;;;;;9.15;3.60;;;9.20;99.90;;;;;;4972113;28;20031;-66
2024/01/26 11:53:08;;;;;;;11.80;3.17;;;9.10;99.90;;;;;;4975218;28;20034;-66
2024/01/26 11:55:36;;;;;;;5.80;3.17;;;9.10;99.90;;;;;;4975068;28;20037;-66
2024/01/26 11:58:02;;;;;;;9.63;3.75;;;9.00;99.90;;;;;;4968631;28;20039;-65
2024/01/26 12:00:29;;;;;;;10.10;4.10;;;8.90;99.90;;;;;;4974115;28;20030;-67
2024/01/26 12:02:55;;;;;;;5.97;3.03;;;8.90;99.90;;;;;;4973674;28;20038;-66
2024/01/26 12:05:22;;;;;;;10.18;3.50;;;8.90;99.90;;;;;;4972227;28;20042;-66
2024/01/26 12:07:48;;;;;;;7.80;2.95;;;9.00;99.90;;;;;;4970355;28;20030;-65
2024/01/26 12:10:14;;;;;;;6.03;3.35;;;8.90;99.90;;;;;;4969110;28;20472;-66
2024/01/26 12:12:47;;;;;;;6.28;3.50;;;9.00;99.90;;;;;;4975442;28;20026;-65
2024/01/26 12:15:13;;;;;;;7.78;3.55;;;9.00;99.90;;;;;;4971806;28;20158;-62
2024/01/26 12:17:39;;;;;;;8.73;3.58;;;9.00;99.90;;;;;;4969563;28;20052;-62
2024/01/26 12:20:08;;;;;;;8.57;3.53;;;8.90;99.90;;;;;;4977354;28;20109;-62
2024/01/26 12:22:37;;;;;;;7.55;3.40;;;8.90;99.90;;;;;;4970830;28;20118;-62
2024/01/26 12:25:06;;;;;;;6.75;3.03;;;9.00;99.90;;;;;;4974750;28;20034;-67
2024/01/26 12:27:33;;;;;;;7.10;3.63;;;9.10;99.90;;;;;;4974744;28;20042;-66
2024/01/26 12:29:59;;;;;;;11.70;4.00;;;9.00;99.90;;;;;;4969474;28;20086;-66
2024/01/26 12:32:25;;;;;;;8.18;4.53;;;8.90;99.90;;;;;;4970633;28;20038;-66
2024/01/26 12:34:51;;;;;;;8.65;4.35;;;8.80;99.90;;;;;;4972698;28;20035;-66
2024/01/26 12:37:17;;;;;;;7.07;3.83;;;8.60;99.90;;;;;;4971400;28;20031;-67
2024/01/26 12:39:42;;;;;;;8.15;4.25;;;8.60;99.90;;;;;;4969595;28;20034;-66
2024/01/26 12:42:08;;;;;;;7.50;4.13;;;8.60;99.90;;;;;;4977188;28;20113;-66
2024/01/26 12:44:36;;;;;;;11.32;3.78;;;8.80;99.90;;;;;;4968626;28;20062;-66
2024/01/26 12:47:03;;;;;;;8.77;3.85;;;8.90;99.90;;;;;;4971502;28;20050;-66
2024/01/26 12:49:31;;;;;;;11.30;5.05;;;8.90;99.90;;;;;;4975943;28;20034;-62
2024/01/26 12:51:58;;;;;;;9.80;4.28;;;8.80;99.90;;;;;;4968155;28;20123;-62
2024/01/26 12:54:24;;;;;;;9.10;3.90;;;8.70;99.90;;;;;;4989374;28;20282;-62
2024/01/26 12:56:50;;;;;;;8.32;4.07;;;8.80;99.90;;;;;;4976674;28;20050;-62
2024/01/26 12:59:16;;;;;;;6.28;3.58;;;8.70;99.90;;;;;;4964409;28;20046;-62
2024/01/26 13:01:43;;;;;;;6.40;3.97;;;8.80;99.90;;;;;;4976329;28;20085;-62
2024/01/26 13:04:10;;;;;;;6.20;3.30;;;8.90;99.90;;;;;;4971973;28;20622;-62
2024/01/26 13:06:37;;;;;;;7.70;3.25;;;9.00;99.90;;;;;;4972433;28;20100;-62
2024/01/26 13:09:06;;;;;;;7.15;3.92;;;9.00;99.90;;;;;;4974551;28;20122;-62
2024/01/26 13:11:36;;;;;;;6.90;4.40;;;8.90;99.90;;;;;;4974893;28;20044;-62
2024/01/26 13:14:03;;;;;;;6.75;3.33;;;9.00;99.90;;;;;;4970099;28;20038;-62
2024/01/26 13:16:29;;;;;;;7.50;3.75;;;9.00;99.90;;;;;;4976151;28;20082;-63
2024/01/26 13:18:55;;;;;;;8.23;3.72;;;9.10;99.90;;;;;;4974470;28;20030;-64
2024/01/26 13:21:21;;;;;;;9.48;3.70;;;9.10;99.90;;;;;;4973392;28;20080;-63
2024/01/26 13:23:47;;;;;;;7.38;3.63;;;9.10;99.90;;;;;;4972864;28;20030;-65
2024/01/26 13:26:13;;;;;;;5.28;3.35;;;9.10;99.90;;;;;;4978090;28;20029;-64
2024/01/26 13:28:38;;;;;;;7.03;3.63;;;9.20;99.90;;;;;;4975290;28;20058;-64
2024/01/26 13:31:05;;;;;;;5.57;3.20;;;9.20;99.90;;;;;;4974300;28;20022;-64
2024/01/26 13:33:31;;;;;;;7.97;3.30;;;9.10;99.90;;;;;;4976525;28;20126;-64
2024/01/26 13:35:57;;;;;;;13.38;5.97;;;9.20;99.90;;;;;;4975946;28;20113;-64
2024/01/26 13:38:23;;;;;;;6.30;3.30;;;9.20;99.90;;;;;;4979040;28;20125;-65
2024/01/26 13:40:50;;;;;;;6.03;3.10;;;9.30;99.90;;;;;;4980048;28;20085;-64
2024/01/26 13:43:17;;;;;;;5.93;3.50;;;9.30;99.90;;;;;;4972468;28;20482;-64
2024/01/26 13:45:44;;;;;;;5.00;2.75;;;9.30;99.90;;;;;;4980019;28;20034;-65
2024/01/26 13:48:10;;;;;;;4.85;2.67;;;9.40;99.90;;;;;;4975514;28;20050;-65
2024/01/26 13:50:36;;;;;;;4.65;2.90;;;9.40;99.90;;;;;;4981182;28;20456;-65
2024/01/26 13:53:02;;;;;;;5.78;3.00;;;9.40;99.90;;;;;;4977926;28;20501;-65
2024/01/26 13:55:27;;;;;;;5.40;2.70;;;9.50;99.90;;;;;;4978311;28;20030;-64
2024/01/26 13:57:53;;;;;;;4.88;2.63;;;9.40;99.90;;;;;;4973745;28;20038;-65
2024/01/26 14:00:19;;;;;;;7.25;2.83;;;9.50;99.90;;;;;;4977117;28;20114;-68
2024/01/26 14:02:45;;;;;;;4.93;2.22;;;9.50;99.90;;;;;;4978877;28;20109;-68
2024/01/26 14:05:11;;;;;;;3.75;2.95;;;9.60;99.90;;;;;;4980657;28;20117;-69
2024/01/26 14:07:37;;;;;;;4.25;2.83;;;9.50;99.90;;;;;;4973369;28;20035;-69
2024/01/26 14:10:04;;;;;;;3.78;2.55;;;9.60;99.90;;;;;;4989335;28;20018;-69
2024/01/26 14:12:30;;;;;;;4.95;2.80;;;9.70;99.90;;;;;;4991474;28;20027;-68
2024/01/26 14:14:57;;;;;;;4.85;3.00;;;9.60;99.90;;;;;;4978376;28;20509;-68
2024/01/26 14:17:23;;;;;;;5.63;2.70;;;9.60;99.90;;;;;;4971505;28;20030;-69
2024/01/26 14:19:49;;;;;;;5.88;2.65;;;9.60;99.90;;;;;;4976273;28;20027;-70
2024/01/26 14:22:16;;;;;;;5.18;2.80;;;9.90;99.90;;;;;;4968754;28;20789;-70
2024/01/26 14:24:43;;;;;;;4.78;2.70;;;9.80;99.90;;;;;;4973398;28;20031;-68
2024/01/26 14:27:12;;;;;;;4.28;2.47;;;9.70;99.90;;;;;;4974424;28;20117;-69
2024/01/26 14:29:39;;;;;;;8.10;2.63;;;9.70;99.90;;;;;;4970005;28;20121;-68
2024/01/26 14:32:05;;;;;;;5.50;2.47;;;9.90;99.90;;;;;;4972402;28;20528;-69
2024/01/26 14:34:32;;;;;;;2.53;2.20;;;9.90;99.90;;;;;;4970626;28;20035;-69
2024/01/26 14:36:59;;;;;;;4.22;2.28;;;9.90;99.90;;;;;;4970829;28;20034;-68
2024/01/26 14:39:25;;;;;;;3.85;2.05;;;9.90;99.90;;;;;;4973381;28;20039;-69
2024/01/26 14:41:55;;;;;;;3.25;1.77;;;10.00;99.90;;;;;;4975514;28;20038;-69
2024/01/26 14:44:21;;;;;;;2.67;1.40;;;10.00;99.90;;;;;;4968723;28;20031;-69
2024/01/26 14:46:47;;;;;;;3.42;1.65;;;10.10;99.90;;;;;;4976376;28;20031;-69
2024/01/26 14:49:15;;;;;;;1.85;1.10;;;10.10;99.90;;;;;;4973818;28;20034;-68
2024/01/26 14:51:42;;;;;;;3.22;1.50;;;10.20;99.90;;;;;;4972190;28;20074;-69
2024/01/26 14:54:09;;;;;;;2.20;1.50;;;10.20;99.90;;;;;;4976851;28;20065;-68
2024/01/26 14:56:37;;;;;;;2.00;1.17;;;10.30;99.90;;;;;;4977862;28;20038;-68
2024/01/26 14:59:03;;;;;;;0.95;0.60;;;10.40;99.90;;;;;;4977931;28;20062;-62
2024/01/26 15:01:29;;;;;;;1.67;0.90;;;10.60;99.90;;;;;;4972873;28;20038;-65
2024/01/26 15:03:56;;;;;;;1.85;0.70;;;10.60;99.90;;;;;;4973250;28;20113;-64
2024/01/26 15:06:22;;;;;;;1.48;0.77;;;10.60;99.90;;;;;;4973342;28;20815;-64
2024/01/26 15:08:48;;;;;;;1.50;0.75;;;10.60;99.90;;;;;;4971928;28;20822;-64
2024/01/26 15:11:13;;;;;;;4.22;1.25;;;10.70;99.90;;;;;;4973796;28;20058;-63
2024/01/26 15:13:40;;;;;;;2.15;1.25;;;10.70;99.90;;;;;;4960094;28;20026;-63
2024/01/26 15:16:07;;;;;;;3.70;1.58;;;10.70;99.90;;;;;;4977474;28;20567;-64
2024/01/26 15:18:33;;;;;;;2.13;1.48;;;10.60;99.90;;;;;;4978714;28;20125;-64
2024/01/26 15:20:59;;;;;;;1.15;1.05;;;10.60;99.90;;;;;;4976711;28;20030;-64
2024/01/26 15:23:25;;;;;;;4.07;2.40;;;10.50;99.90;;;;;;4978524;28;20022;-63
2024/01/26 15:25:51;;;;;;;5.78;2.38;;;10.50;99.90;;;;;;4964077;28;20156;-64
2024/01/26 15:28:19;;;;;;;10.27;3.65;;;10.40;99.90;;;;;;4974464;28;20700;-64
2024/01/26 15:30:45;;;;;;;6.93;3.42;;;10.30;99.90;;;;;;4974787;28;20675;-64
2024/01/26 15:33:11;;;;;;;4.22;2.80;;;10.30;99.90;;;;;;4970045;28;20545;-64
2024/01/26 15:35:36;;;;;;;3.78;2.40;;;10.20;99.90;;;;;;4968616;28;20225;-61
2024/01/26 15:38:03;;;;;;;5.78;3.10;;;10.20;99.90;;;;;;4972513;28;20117;-63
2024/01/26 15:40:29;;;;;;;2.30;1.42;;;10.00;99.90;;;;;;4977222;28;20077;-63
2024/01/26 15:42:54;;;;;;;2.10;1.48;;;9.90;99.90;;;;;;4971974;28;20022;-63
2024/01/26 15:45:20;;;;;;;4.78;2.40;;;9.80;99.90;;;;;;4967482;28;20033;-63
2024/01/26 15:47:46;;;;;;;1.77;1.10;;;9.80;99.90;;;;;;4969159;28;20108;-62
2024/01/26 15:50:12;;;;;;;2.08;0.90;;;9.80;99.90;;;;;;4974994;28;20141;-63
2024/01/26 15:52:39;;;;;;;2.15;1.55;;;9.70;99.90;;;;;;4977343;28;20459;-63
2024/01/26 15:55:06;;;;;;;3.05;1.10;;;9.80;99.90;;;;;;4976392;28;20023;-62
2024/01/26 15:57:32;;;;;;;4.85;0.95;;;9.70;99.90;;;;;;4976078;28;20042;-63
2024/01/26 15:59:58;;;;;;;4.13;1.10;;;9.60;99.90;;;;;;4974760;28;20022;-63
2024/01/26 16:02:24;;;;;;;2.95;1.08;;;9.50;99.90;;;;;;4975003;28;20084;-62
2024/01/26 16:04:51;;;;;;;1.10;0.47;;;9.50;99.90;;;;;;4975428;28;20030;-62
2024/01/26 16:07:17;;;;;;;2.50;1.00;;;9.40;99.90;;;;;;4978644;28;20034;-63
2024/01/26 16:09:43;;;;;;;0.63;0.63;;;9.30;99.90;;;;;;4983281;28;20030;-62
2024/01/26 16:12:10;;;;;;;3.13;0.80;;;9.40;99.90;;;;;;4968946;28;20874;-62
2024/01/26 16:14:36;;;;;;;0.93;0.70;;;9.40;99.90;;;;;;4968800;28;20027;-62
2024/01/26 16:17:03;;;;;;;4.78;1.02;;;9.40;99.90;;;;;;4970243;28;20517;-62
2024/01/26 16:19:29;;;;;;;2.45;0.63;;;9.20;99.90;;;;;;4982696;28;20027;-62
2024/01/26 16:21:54;;;;;;;3.33;0.90;;;9.10;99.90;;;;;;4969287;28;20519;-62
2024/01/26 16:24:20;;;;;;;2.00;0.50;;;9.10;99.90;;;;;;4974914;28;20058;-63
2024/01/26 16:26:46;;;;;;;5.82;1.48;;;9.00;99.90;;;;;;4977635;28;20125;-62
2024/01/26 16:29:12;;;;;;;4.07;0.90;;;9.00;99.90;;;;;;4977465;28;20243;-63
2024/01/26 16:31:40;;;;;;;3.67;0.60;;;8.90;99.90;;;;;;4973558;28;20035;-63
2024/01/26 16:34:06;;;;;;;2.58;0.82;;;8.80;99.90;;;;;;4975396;28;20043;-63
2024/01/26 16:36:33;;;;;;;3.33;0.73;;;8.80;99.90;;;;;;4978003;28;20037;-62
2024/01/26 16:38:59;;;;;;;3.20;0.82;;;8.90;99.90;;;;;;4976352;28;20062;-63
2024/01/26 16:41:25;;;;;;;4.32;1.15;;;9.00;99.90;;;;;;4972777;28;20069;-62
2024/01/26 16:43:52;;;;;;;4.63;1.20;;;9.00;99.90;;;;;;4978399;28;20046;-62
2024/01/26 16:46:19;;;;;;;4.25;1.48;;;9.10;99.90;;;;;;4974597;28;20141;-63
2024/01/26 16:48:45;;;;;;;8.30;1.40;;;9.10;99.90;;;;;;4976636;28;20038;-63
2024/01/26 16:51:10;;;;;;;2.25;1.10;;;9.10;99.90;;;;;;4976725;28;20047;-70
2024/01/26 16:53:36;;;;;;;2.22;0.60;;;9.20;99.90;;;;;;4976863;28;20034;-63
2024/01/26 16:56:02;;;;;;;3.25;0.70;;;9.10;99.90;;;;;;4973012;28;20141;-63
2024/01/26 16:58:28;;;;;;;3.65;0.60;;;9.10;99.90;;;;;;4967223;28;20027;-62
2024/01/26 17:00:54;;;;;;;0.50;0.40;;;9.10;99.90;;;;;;4976245;28;20041;-63
2024/01/26 17:03:20;;;;;;;3.88;0.68;;;9.00;99.90;;;;;;4975891;28;20831;-62
2024/01/26 17:05:46;;;;;;;5.88;1.30;;;9.00;99.90;;;;;;4979674;28;20033;-63
2024/01/26 17:08:12;;;;;;;8.20;0.85;;;8.90;99.90;;;;;;4985169;28;20087;-63
2024/01/26 17:10:38;;;;;;;3.78;0.80;;;8.80;99.90;;;;;;4978817;28;20616;-63
2024/01/26 17:13:04;;;;;;;1.95;0.60;;;8.80;99.90;;;;;;4976595;28;20117;-63
2024/01/26 17:15:30;;;;;;;1.95;0.65;;;8.70;99.90;;;;;;4982900;28;20738;-62
2024/01/26 17:17:56;;;;;;;2.58;0.50;;;8.60;99.90;;;;;;4976923;28;20042;-62
2024/01/26 17:20:22;;;;;;;5.90;1.13;;;8.70;99.90;;;;;;4977856;28;20038;-62
2024/01/26 17:22:48;;;;;;;2.38;0.63;;;8.60;99.90;;;;;;4980550;28;20041;-63
2024/01/26 17:25:14;;;;;;;2.88;0.88;;;8.70;99.90;;;;;;4974698;28;20121;-62
2024/01/26 17:27:40;;;;;;;5.68;0.98;;;8.70;99.90;;;;;;4974293;28;20038;-63
2024/01/26 17:30:06;;;;;;;4.40;0.88;;;8.70;99.90;;;;;;4978336;28;20030;-63
2024/01/26 17:32:34;;;;;;;4.28;0.73;;;8.60;99.90;;;;;;4980510;28;20035;-63
2024/01/26 17:35:00;;;;;;;1.50;0.60;;;8.60;99.90;;;;;;4974185;28;20156;-63
2024/01/26 17:37:26;;;;;;;2.30;0.82;;;8.60;99.90;;;;;;4975134;28;20038;-65
2024/01/26 17:39:52;;;;;;;4.10;1.20;;;8.60;99.90;;;;;;4976903;28;20034;-63
2024/01/26 17:42:18;;;;;;;5.95;1.20;;;8.50;99.90;;;;;;4977460;28;20111;-66
2024/01/26 17:44:44;;;;;;;6.68;1.35;;;8.50;99.90;;;;;;4977566;28;20014;-67
2024/01/26 17:47:10;;;;;;;8.73;0.90;;;8.50;99.90;;;;;;4975034;28;20372;-67
2024/01/26 17:49:36;;;;;;;5.38;1.38;;;8.60;99.90;;;;;;4970096;28;20816;-67
2024/01/26 17:52:02;;;;;;;6.80;1.45;;;8.60;99.90;;;;;;4978403;28;20151;-67
2024/01/26 17:54:29;;;;;;;5.38;1.27;;;8.40;99.90;;;;;;4970458;28;20125;-68
2024/01/26 17:56:55;;;;;;;7.68;1.23;;;8.40;99.90;;;;;;4974726;28;20053;-67
2024/01/26 17:59:21;;;;;;;7.20;1.30;;;8.30;99.90;;;;;;4971960;28;20406;-63
2024/01/26 18:01:47;;;;;;;6.72;1.40;;;8.20;99.90;;;;;;4977384;28;20041;-63
2024/01/26 18:04:12;;;;;;;9.48;1.40;;;8.20;99.90;;;;;;4978162;28;20126;-63
2024/01/26 18:06:38;;;;;;;4.32;1.02;;;8.30;99.90;;;;;;4972179;28;20030;-63
2024/01/26 18:09:05;;;;;;;7.68;1.27;;;8.30;99.90;;;;;;4973336;28;20030;-63
2024/01/26 18:11:32;;;;;;;7.05;1.30;;;8.30;99.90;;;;;;4971357;28;20038;-63
2024/01/26 18:13:57;;;;;;;4.78;1.48;;;8.30;99.90;;;;;;4973689;28;20041;-63
2024/01/26 18:16:23;;;;;;;6.40;1.30;;;8.40;99.90;;;;;;4972822;28;20121;-64
2024/01/26 18:18:49;;;;;;;7.80;1.52;;;8.30;99.90;;;;;;4978919;28;20041;-63
2024/01/26 18:21:15;;;;;;;5.32;1.33;;;8.30;99.90;;;;;;4967657;28;20789;-63
2024/01/26 18:23:41;;;;;;;7.38;1.85;;;8.40;99.90;;;;;;4975564;28;20046;-63
2024/01/26 18:26:08;;;;;;;9.82;1.40;;;8.30;99.90;;;;;;4981041;28;20069;-63
2024/01/26 18:28:35;;;;;;;10.48;1.40;;;8.30;99.90;;;;;;4972679;28;20037;-61
2024/01/26 18:31:01;;;;;;;9.68;1.63;;;8.30;99.90;;;;;;4974704;28;20038;-61
2024/01/26 18:33:27;;;;;;;6.82;1.05;;;8.20;99.90;;;;;;4973277;28;20085;-61
2024/01/26 18:35:53;;;;;;;10.25;1.17;;;8.30;99.90;;;;;;4976590;28;20050;-61
2024/01/26 18:38:19;;;;;;;6.68;1.67;;;8.30;99.90;;;;;;4974269;28;20045;-61
2024/01/26 18:40:44;;;;;;;7.68;1.90;;;8.30;99.90;;;;;;4975357;28;20053;-61
2024/01/26 18:43:10;;;;;;;9.88;1.33;;;8.20;99.90;;;;;;4974404;28;20045;-61
2024/01/26 18:45:37;;;;;;;7.70;1.25;;;8.30;99.90;;;;;;4975697;28;20125;-61
2024/01/26 18:48:03;;;;;;;10.00;1.85;;;8.30;99.90;;;;;;4975552;28;20025;-61
2024/01/26 18:50:29;;;;;;;6.50;1.75;;;8.30;99.90;;;;;;4961887;28;20026;-61
2024/01/26 18:52:54;;;;;;;10.10;1.02;;;8.30;99.90;;;;;;4978085;28;20785;-61
2024/01/26 18:55:20;;;;;;;6.10;0.90;;;8.30;99.90;;;;;;4978405;28;20069;-61
2024/01/26 18:57:46;;;;;;;7.72;1.20;;;8.20;99.90;;;;;;4976884;28;20046;-61
2024/01/26 19:00:12;;;;;;;5.20;1.20;;;8.20;99.90;;;;;;4971839;28;20030;-65
2024/01/26 19:02:38;;;;;;;14.10;2.13;;;8.20;99.90;;;;;;4971238;28;20030;-65
2024/01/26 19:05:12;;;;;;;6.85;1.20;;;8.10;99.90;;;;;;4968930;28;20510;-66
2024/01/26 19:07:40;;;;;;;8.65;1.27;;;8.10;99.90;;;;;;4974139;28;20126;-65
2024/01/26 19:10:06;;;;;;;12.20;1.70;;;8.10;99.90;;;;;;4980438;28;20038;-65
2024/01/26 19:12:32;;;;;;;7.68;1.42;;;8.20;99.90;;;;;;4971761;28;20038;-66
2024/01/26 19:14:58;;;;;;;8.40;1.00;;;8.20;99.90;;;;;;4977540;28;20476;-66
2024/01/26 19:17:24;;;;;;;10.50;1.67;;;8.30;99.90;;;;;;4973692;28;20038;-66
2024/01/26 19:19:49;;;;;;;6.50;1.00;;;8.20;99.90;;;;;;4972356;28;20038;-65
2024/01/26 19:22:15;;;;;;;11.30;1.90;;;8.10;99.90;;;;;;4975380;28;20550;-66
2024/01/26 19:24:41;;;;;;;13.60;1.60;;;8.00;99.90;;;;;;4965819;28;20552;-66
2024/01/26 19:27:07;;;;;;;15.70;2.65;;;7.80;99.90;;;;;;4972875;28;20033;-66
2024/01/26 19:29:35;;;;;;;9.32;1.40;;;7.80;99.90;;;;;;4972174;28;20113;-66
2024/01/26 19:32:02;;;;;;;7.22;1.25;;;7.80;99.90;;;;;;4979226;28;20175;-66
2024/01/26 19:34:30;;;;;;;12.68;1.42;;;7.70;99.90;;;;;;4972087;28;20061;-66
2024/01/26 19:36:56;;;;;;;8.23;1.27;;;7.70;99.90;;;;;;4969288;28;20034;-62
2024/01/26 19:39:22;;;;;;;6.05;1.15;;;7.60;99.90;;;;;;4976147;28;20228;-66
2024/01/26 19:41:47;;;;;;;8.52;1.20;;;7.60;99.90;;;;;;4969694;28;20498;-67
2024/01/26 19:44:13;;;;;;;7.30;1.30;;;7.60;99.90;;;;;;4971590;28;20501;-65
2024/01/26 19:46:39;;;;;;;8.13;1.23;;;7.70;99.90;;;;;;4975160;28;20031;-65